Time;durP1;ratioP1;P1;durP2;ratioP2;P2;SDS_P1;SDS_P2;PMS_P1;PMS_P2;Temp;Humidity;BMP_temperature;BMP_pressure;BME280_temperature;BME280_humidity;BME280_pressure;Samples;Min_cycle;Max_cycle;Signal;HPM_P1;HPM_P2
2023/04/08 00:00:56;;;;;;;37.00;17.63;;;;;;;;;;5070632;27;20016;-79
2023/04/08 00:03:22;;;;;;;32.13;17.73;;;;;;;;;;5071352;28;20048;-79
2023/04/08 00:05:51;;;;;;;34.00;18.73;;;;;;;;;;5069765;27;20017;-79
2023/04/08 00:08:17;;;;;;;31.30;16.90;;;;;;;;;;5070677;28;20016;-79
2023/04/08 00:10:45;;;;;;;29.93;17.47;;;;;;;;;;5070486;28;20067;-79
2023/04/08 00:13:14;;;;;;;35.13;17.47;;;;;;;;;;5076710;28;20012;-79
2023/04/08 00:15:40;;;;;;;34.23;16.50;;;;;;;;;;5088295;27;20025;-79
2023/04/08 00:18:07;;;;;;;32.27;17.93;;;;;;;;;;5069232;28;20020;-79
2023/04/08 00:20:33;;;;;;;27.27;16.20;;;;;;;;;;5089120;27;20017;-79
2023/04/08 00:22:59;;;;;;;29.23;16.60;;;;;;;;;;5076362;28;20040;-79
2023/04/08 00:25:25;;;;;;;27.97;16.17;;;;;;;;;;5071136;28;20027;-78
2023/04/08 00:27:51;;;;;;;29.77;16.80;;;;;;;;;;5090050;27;20021;-79
2023/04/08 00:30:17;;;;;;;29.77;16.10;;;;;;;;;;5087611;27;20025;-79
2023/04/08 00:32:44;;;;;;;29.63;17.63;;;;;;;;;;5073992;27;20020;-79
2023/04/08 00:35:11;;;;;;;24.70;16.33;;;;;;;;;;5070147;27;20063;-79
2023/04/08 00:37:37;;;;;;;29.33;16.50;;;;;;;;;;5069835;27;20066;-79
2023/04/08 00:40:07;;;;;;;27.27;16.20;;;;;;;;;;5070979;28;20017;-79
2023/04/08 00:42:43;;;;;;;33.23;16.07;;;;;;;;;;5072299;28;20021;-78
2023/04/08 00:45:10;;;;;;;33.33;15.77;;;;;;;;;;5071521;27;20017;-79
2023/04/08 00:47:36;;;;;;;31.43;17.23;;;;;;;;;;5073412;28;20116;-78
2023/04/08 00:50:05;;;;;;;41.90;18.43;;;;;;;;;;5067772;28;20058;-78
2023/04/08 00:52:31;;;;;;;27.90;15.37;;;;;;;;;;5073454;27;20005;-79
2023/04/08 00:54:57;;;;;;;33.27;17.43;;;;;;;;;;5070233;28;20020;-79
2023/04/08 00:57:23;;;;;;;33.53;16.70;;;;;;;;;;5068335;27;20009;-79
2023/04/08 00:59:49;;;;;;;30.10;16.73;;;;;;;;;;5071294;28;20043;-80
2023/04/08 01:02:25;;;;;;;31.70;18.17;;;;;;;;;;5069634;28;20036;-80
2023/04/08 01:04:57;;;;;;;32.60;17.57;;;;;;;;;;5076131;28;20036;-80
2023/04/08 01:07:26;;;;;;;32.42;17.92;;;;;;;;;;5070692;28;20020;-79
2023/04/08 01:09:54;;;;;;;36.30;17.23;;;;;;;;;;5072805;28;20016;-80
2023/04/08 01:12:27;;;;;;;33.77;18.10;;;;;;;;;;5088454;27;20020;-79
2023/04/08 01:15:00;;;;;;;32.53;17.30;;;;;;;;;;5075891;28;20013;-80
2023/04/08 01:17:26;;;;;;;35.03;17.88;;;;;;;;;;5071041;27;20043;-78
2023/04/08 01:19:54;;;;;;;34.83;18.17;;;;;;;;;;5072880;27;20020;-79
2023/04/08 01:22:20;;;;;;;34.83;18.27;;;;;;;;;;5069713;28;20044;-80
2023/04/08 01:24:47;;;;;;;33.67;17.20;;;;;;;;;;5072089;28;20029;-78
2023/04/08 01:27:14;;;;;;;30.80;17.97;;;;;;;;;;5070453;28;20028;-79
2023/04/08 01:29:41;;;;;;;30.87;17.93;;;;;;;;;;5086525;28;20076;-79
2023/04/08 01:32:08;;;;;;;31.53;17.13;;;;;;;;;;5075275;28;20013;-79
2023/04/08 01:34:35;;;;;;;31.40;17.40;;;;;;;;;;5066787;28;20024;-79
2023/04/08 01:37:01;;;;;;;32.67;16.93;;;;;;;;;;5069964;28;20020;-79
2023/04/08 01:39:28;;;;;;;34.17;18.33;;;;;;;;;;5070816;28;20017;-79
2023/04/08 01:41:56;;;;;;;28.60;17.80;;;;;;;;;;5068218;28;20025;-80
2023/04/08 01:44:22;;;;;;;37.87;17.83;;;;;;;;;;5085520;27;20044;-80
2023/04/08 01:46:48;;;;;;;32.10;17.87;;;;;;;;;;5067695;28;20013;-80
2023/04/08 01:49:15;;;;;;;35.83;17.37;;;;;;;;;;5070954;28;20021;-79
2023/04/08 01:51:44;;;;;;;30.53;17.47;;;;;;;;;;5069938;28;20017;-79
2023/04/08 01:54:10;;;;;;;35.47;17.83;;;;;;;;;;5070206;27;20095;-80
2023/04/08 01:56:37;;;;;;;42.30;19.60;;;;;;;;;;5067201;28;20025;-79
2023/04/08 01:59:06;;;;;;;38.37;19.73;;;;;;;;;;5070203;28;20032;-78
2023/04/08 02:01:34;;;;;;;39.00;20.53;;;;;;;;;;5070041;28;20031;-79
2023/04/08 02:04:00;;;;;;;40.37;21.93;;;;;;;;;;5070914;27;20036;-79
2023/04/08 02:06:28;;;;;;;40.83;21.80;;;;;;;;;;5071076;27;20021;-79
2023/04/08 02:08:57;;;;;;;42.87;22.37;;;;;;;;;;5070613;28;20028;-79
2023/04/08 02:11:24;;;;;;;44.37;22.10;;;;;;;;;;5067679;27;20022;-78
2023/04/08 02:13:50;;;;;;;41.63;21.70;;;;;;;;;;5069930;27;20029;-79
2023/04/08 02:16:22;;;;;;;40.03;22.57;;;;;;;;;;5069843;28;20031;-79
2023/04/08 02:19:01;;;;;;;51.20;25.70;;;;;;;;;;5068858;28;20301;-78
2023/04/08 02:21:37;;;;;;;48.90;24.07;;;;;;;;;;5074368;28;20032;-78
2023/04/08 02:24:05;;;;;;;49.23;24.43;;;;;;;;;;5067206;27;20043;-80
2023/04/08 02:26:33;;;;;;;46.90;24.93;;;;;;;;;;5067584;28;20005;-79
2023/04/08 02:29:00;;;;;;;53.53;28.07;;;;;;;;;;5088425;27;20047;-80
2023/04/08 02:31:28;;;;;;;50.20;26.17;;;;;;;;;;5086734;27;20021;-79
2023/04/08 02:33:55;;;;;;;48.83;25.97;;;;;;;;;;5067830;28;20067;-79
2023/04/08 02:36:22;;;;;;;48.47;25.50;;;;;;;;;;5070374;28;20016;-79
2023/04/08 02:38:51;;;;;;;53.30;27.90;;;;;;;;;;5073905;27;20028;-79
2023/04/08 02:41:20;;;;;;;46.33;26.37;;;;;;;;;;5065978;28;20052;-79
2023/04/08 02:43:46;;;;;;;57.73;29.97;;;;;;;;;;5069916;27;20036;-79
2023/04/08 02:46:12;;;;;;;52.27;28.93;;;;;;;;;;5070522;28;20017;-80
2023/04/08 02:48:42;;;;;;;49.27;27.53;;;;;;;;;;5070721;28;20031;-80
2023/04/08 02:51:08;;;;;;;49.60;28.47;;;;;;;;;;5086142;28;20032;-79
2023/04/08 02:53:37;;;;;;;61.43;29.33;;;;;;;;;;5068168;28;20021;-79
2023/04/08 02:56:03;;;;;;;59.67;29.17;;;;;;;;;;5070766;28;20076;-80
2023/04/08 02:58:29;;;;;;;57.17;29.97;;;;;;;;;;5072875;28;20051;-80
2023/04/08 03:00:55;;;;;;;56.37;29.30;;;;;;;;;;5073088;27;20013;-79
2023/04/08 03:03:28;;;;;;;66.63;30.93;;;;;;;;;;5071689;28;20047;-79
2023/04/08 03:05:54;;;;;;;58.17;28.25;;;;;;;;;;5071061;28;20028;-79
2023/04/08 03:08:23;;;;;;;56.60;28.83;;;;;;;;;;5070289;27;20016;-78
2023/04/08 03:10:51;;;;;;;60.67;29.10;;;;;;;;;;5079015;27;20028;-79
2023/04/08 03:13:17;;;;;;;56.33;29.13;;;;;;;;;;5071236;27;20016;-80
2023/04/08 03:15:43;;;;;;;57.43;28.23;;;;;;;;;;5073407;28;20096;-80
2023/04/08 03:18:13;;;;;;;58.13;28.97;;;;;;;;;;5073069;28;20031;-80
2023/04/08 03:20:39;;;;;;;52.33;29.17;;;;;;;;;;5078438;28;20028;-80
2023/04/08 03:23:05;;;;;;;55.47;27.17;;;;;;;;;;5074283;27;20032;-79
2023/04/08 03:25:31;;;;;;;54.63;29.10;;;;;;;;;;5072862;27;20040;-79
2023/04/08 03:28:01;;;;;;;55.90;30.03;;;;;;;;;;5072361;28;20025;-80
2023/04/08 03:30:27;;;;;;;57.50;28.50;;;;;;;;;;5072526;28;20024;-80
2023/04/08 03:32:53;;;;;;;51.30;28.07;;;;;;;;;;5070792;27;20012;-80
2023/04/08 03:35:19;;;;;;;48.90;28.40;;;;;;;;;;5089771;27;20036;-79
2023/04/08 03:37:45;;;;;;;57.63;27.90;;;;;;;;;;5073989;27;20035;-80
2023/04/08 03:40:12;;;;;;;50.77;29.13;;;;;;;;;;5090903;28;20031;-79
2023/04/08 03:42:38;;;;;;;46.03;27.47;;;;;;;;;;5071250;28;20017;-79
2023/04/08 03:45:04;;;;;;;54.03;29.57;;;;;;;;;;5072434;28;20028;-79
2023/04/08 03:47:33;;;;;;;49.57;27.13;;;;;;;;;;5071606;28;21266;-79
2023/04/08 03:50:02;;;;;;;51.60;28.20;;;;;;;;;;5070950;27;20028;-80
2023/04/08 03:52:28;;;;;;;53.00;26.37;;;;;;;;;;5071631;27;20028;-79
2023/04/08 03:54:56;;;;;;;49.90;26.83;;;;;;;;;;5072542;28;20028;-80
2023/04/08 03:57:22;;;;;;;57.70;28.87;;;;;;;;;;5071495;28;20025;-80
2023/04/08 03:59:49;;;;;;;57.47;28.83;;;;;;;;;;5089550;27;20012;-79
2023/04/08 04:02:15;;;;;;;51.83;27.70;;;;;;;;;;5071064;28;20013;-79
2023/04/08 04:04:41;;;;;;;49.43;26.57;;;;;;;;;;5069356;28;20032;-79
2023/04/08 04:07:09;;;;;;;56.67;28.87;;;;;;;;;;5072370;28;20013;-80
2023/04/08 04:09:35;;;;;;;46.70;27.03;;;;;;;;;;5088861;27;20029;-79
2023/04/08 04:12:01;;;;;;;52.80;28.37;;;;;;;;;;5070215;28;20218;-80
2023/04/08 04:14:27;;;;;;;54.33;29.60;;;;;;;;;;5070939;27;20051;-80
2023/04/08 04:16:54;;;;;;;65.30;29.47;;;;;;;;;;5075752;28;20025;-80
2023/04/08 04:19:22;;;;;;;58.53;30.00;;;;;;;;;;5078175;27;20047;-79
2023/04/08 04:21:48;;;;;;;56.33;28.27;;;;;;;;;;5071519;28;20026;-80
2023/04/08 04:24:14;;;;;;;57.10;28.50;;;;;;;;;;5088634;27;20031;-80
2023/04/08 04:26:41;;;;;;;56.67;28.70;;;;;;;;;;5071402;28;20041;-80
2023/04/08 04:29:10;;;;;;;64.63;29.57;;;;;;;;;;5086922;28;20072;-80
2023/04/08 04:31:36;;;;;;;56.67;28.20;;;;;;;;;;5071835;28;20056;-81
2023/04/08 04:34:02;;;;;;;55.50;28.53;;;;;;;;;;5070644;28;20020;-79
2023/04/08 04:36:28;;;;;;;57.77;30.60;;;;;;;;;;5071614;27;20025;-79
2023/04/08 04:38:55;;;;;;;57.10;27.87;;;;;;;;;;5071569;28;20025;-79
2023/04/08 04:41:28;;;;;;;53.37;28.97;;;;;;;;;;5072222;28;20020;-79
2023/04/08 04:43:54;;;;;;;57.47;29.37;;;;;;;;;;5070876;27;20032;-79
2023/04/08 04:46:22;;;;;;;52.00;27.50;;;;;;;;;;5071932;28;20024;-79
2023/04/08 04:48:51;;;;;;;53.90;28.67;;;;;;;;;;5070809;27;20022;-79
2023/04/08 04:51:17;;;;;;;53.37;30.13;;;;;;;;;;5069416;28;20029;-80
2023/04/08 04:53:43;;;;;;;57.50;31.17;;;;;;;;;;5074624;28;20019;-79
2023/04/08 04:56:10;;;;;;;58.67;30.23;;;;;;;;;;5071310;28;20052;-80
2023/04/08 04:58:36;;;;;;;53.87;29.77;;;;;;;;;;5069927;28;20041;-79
2023/04/08 05:01:02;;;;;;;61.40;31.87;;;;;;;;;;5078455;28;20059;-79
2023/04/08 05:03:28;;;;;;;57.90;33.53;;;;;;;;;;5088465;28;20159;-80
2023/04/08 05:05:54;;;;;;;64.43;33.53;;;;;;;;;;5071943;27;20032;-79
2023/04/08 05:08:23;;;;;;;58.53;31.90;;;;;;;;;;5078264;27;20024;-80
2023/04/08 05:10:49;;;;;;;64.53;33.83;;;;;;;;;;5071897;27;20056;-79
2023/04/08 05:13:18;;;;;;;61.10;31.30;;;;;;;;;;5088651;27;20017;-80
2023/04/08 05:15:47;;;;;;;59.30;31.37;;;;;;;;;;5077606;27;20039;-79
2023/04/08 05:18:16;;;;;;;60.80;33.37;;;;;;;;;;5069951;28;20024;-79
2023/04/08 05:20:44;;;;;;;61.40;33.37;;;;;;;;;;5068498;27;20025;-80
2023/04/08 05:23:11;;;;;;;64.00;33.73;;;;;;;;;;5070315;28;20031;-81
2023/04/08 05:25:37;;;;;;;58.80;32.03;;;;;;;;;;5073672;27;20035;-80
2023/04/08 05:28:03;;;;;;;59.23;32.57;;;;;;;;;;5070498;28;20025;-80
2023/04/08 05:30:32;;;;;;;64.63;33.80;;;;;;;;;;5071973;28;20028;-80
2023/04/08 05:32:59;;;;;;;62.93;33.27;;;;;;;;;;5068511;27;20032;-80
2023/04/08 05:35:25;;;;;;;59.43;32.87;;;;;;;;;;5076445;27;20201;-80
2023/04/08 05:37:51;;;;;;;63.67;35.57;;;;;;;;;;5087686;27;20015;-80
2023/04/08 05:40:17;;;;;;;61.73;34.27;;;;;;;;;;5072772;27;20008;-79
2023/04/08 05:42:43;;;;;;;63.60;35.30;;;;;;;;;;5090527;27;20035;-80
2023/04/08 05:45:10;;;;;;;63.40;35.47;;;;;;;;;;5071679;27;20096;-79
2023/04/08 05:47:38;;;;;;;69.97;37.37;;;;;;;;;;5068957;28;20048;-80
2023/04/08 05:50:07;;;;;;;68.90;39.13;;;;;;;;;;5076084;28;20043;-80
2023/04/08 05:52:33;;;;;;;70.77;39.07;;;;;;;;;;5085031;27;20092;-80
2023/04/08 05:54:59;;;;;;;81.47;41.50;;;;;;;;;;5071967;27;20025;-79
2023/04/08 05:57:25;;;;;;;75.73;39.87;;;;;;;;;;5067226;28;20013;-80
2023/04/08 05:59:52;;;;;;;71.57;38.37;;;;;;;;;;5069750;28;20012;-79
2023/04/08 06:02:18;;;;;;;80.17;42.23;;;;;;;;;;5085304;27;20024;-80
2023/04/08 06:04:46;;;;;;;90.07;42.10;;;;;;;;;;5075232;27;20021;-81
2023/04/08 06:07:12;;;;;;;87.27;42.40;;;;;;;;;;5072205;28;20008;-79
2023/04/08 06:09:38;;;;;;;80.10;42.27;;;;;;;;;;5074664;28;20088;-79
2023/04/08 06:12:05;;;;;;;78.17;42.27;;;;;;;;;;5068701;28;20028;-80
2023/04/08 06:14:31;;;;;;;78.57;40.07;;;;;;;;;;5072091;27;20052;-79
2023/04/08 06:16:57;;;;;;;79.70;39.00;;;;;;;;;;5087192;28;20090;-79
2023/04/08 06:19:23;;;;;;;88.03;42.67;;;;;;;;;;5073385;28;20005;-80
2023/04/08 06:21:50;;;;;;;80.33;42.20;;;;;;;;;;5068884;28;20021;-79
2023/04/08 06:24:18;;;;;;;94.80;44.80;;;;;;;;;;5068567;28;20112;-78
2023/04/08 06:26:44;;;;;;;87.67;44.47;;;;;;;;;;5068534;28;20019;-78
2023/04/08 06:29:10;;;;;;;84.33;40.63;;;;;;;;;;5068152;28;20029;-79
2023/04/08 06:31:39;;;;;;;85.33;43.57;;;;;;;;;;5067042;28;20027;-79
2023/04/08 06:34:08;;;;;;;82.33;44.63;;;;;;;;;;5075121;27;20344;-79
2023/04/08 06:36:34;;;;;;;81.33;42.93;;;;;;;;;;5073735;27;20027;-79
2023/04/08 06:39:02;;;;;;;75.53;41.83;;;;;;;;;;5071027;27;20028;-79
2023/04/08 06:41:28;;;;;;;79.80;43.50;;;;;;;;;;5074366;27;20016;-79
2023/04/08 06:43:54;;;;;;;77.87;42.53;;;;;;;;;;5072219;28;20055;-79
2023/04/08 06:46:20;;;;;;;85.03;44.47;;;;;;;;;;5074691;27;20025;-79
2023/04/08 06:48:49;;;;;;;96.63;45.20;;;;;;;;;;5074085;27;20043;-79
2023/04/08 06:51:15;;;;;;;78.30;42.37;;;;;;;;;;5072778;27;20084;-79
2023/04/08 06:53:41;;;;;;;80.27;42.03;;;;;;;;;;5074871;27;20009;-79
2023/04/08 06:56:07;;;;;;;80.03;44.13;;;;;;;;;;5072583;28;20028;-79
2023/04/08 06:58:33;;;;;;;75.87;41.87;;;;;;;;;;5090476;27;20399;-79
2023/04/08 07:01:02;;;;;;;77.90;43.20;;;;;;;;;;5073759;28;20033;-78
2023/04/08 07:03:28;;;;;;;77.07;42.60;;;;;;;;;;5072699;27;20024;-79
2023/04/08 07:05:54;;;;;;;77.93;45.67;;;;;;;;;;5070957;28;20032;-79
2023/04/08 07:08:20;;;;;;;82.50;44.43;;;;;;;;;;5074746;28;20020;-78
2023/04/08 07:10:47;;;;;;;73.97;41.47;;;;;;;;;;5077016;27;20175;-79
2023/04/08 07:13:13;;;;;;;80.67;43.67;;;;;;;;;;5078292;28;20019;-79
2023/04/08 07:15:39;;;;;;;78.07;43.37;;;;;;;;;;5078256;28;20024;-79
2023/04/08 07:18:07;;;;;;;81.77;45.07;;;;;;;;;;5072909;28;20028;-79
2023/04/08 07:20:37;;;;;;;80.63;43.87;;;;;;;;;;5089735;27;20025;-77
2023/04/08 07:23:03;;;;;;;79.60;45.60;;;;;;;;;;5069920;28;20036;-79
2023/04/08 07:25:29;;;;;;;76.83;42.83;;;;;;;;;;5073405;28;20079;-78
2023/04/08 07:27:55;;;;;;;79.33;42.03;;;;;;;;;;5081768;28;20013;-79
2023/04/08 07:30:21;;;;;;;65.77;40.07;;;;;;;;;;5088343;27;20076;-78
2023/04/08 07:32:47;;;;;;;67.30;39.87;;;;;;;;;;5075297;27;20088;-80
2023/04/08 07:35:22;;;;;;;62.57;39.33;;;;;;;;;;5072655;28;20020;-79
2023/04/08 07:37:49;;;;;;;65.37;40.23;;;;;;;;;;5074198;28;20098;-79
2023/04/08 07:40:15;;;;;;;69.63;41.73;;;;;;;;;;5073245;27;20100;-79
2023/04/08 07:42:41;;;;;;;65.03;40.83;;;;;;;;;;5071353;28;20021;-79
2023/04/08 07:45:07;;;;;;;64.07;39.10;;;;;;;;;;5071583;28;20024;-79
2023/04/08 07:47:33;;;;;;;60.13;38.73;;;;;;;;;;5070957;28;20033;-78
2023/04/08 07:50:00;;;;;;;61.50;38.87;;;;;;;;;;5073768;28;20025;-78
2023/04/08 07:52:26;;;;;;;63.80;39.97;;;;;;;;;;5089532;27;20028;-78
2023/04/08 07:54:54;;;;;;;59.97;39.43;;;;;;;;;;5072815;27;20024;-77
2023/04/08 07:57:20;;;;;;;59.43;38.80;;;;;;;;;;5073411;28;20037;-79
2023/04/08 07:59:46;;;;;;;65.27;41.23;;;;;;;;;;5071397;27;20054;-79
2023/04/08 08:02:12;;;;;;;58.43;38.97;;;;;;;;;;5072978;28;20100;-78
2023/04/08 08:04:41;;;;;;;62.07;38.73;;;;;;;;;;5072025;27;20059;-78
2023/04/08 08:07:07;;;;;;;57.77;37.90;;;;;;;;;;5069688;28;20044;-79
2023/04/08 08:09:33;;;;;;;54.80;35.30;;;;;;;;;;5070587;28;20035;-79
2023/04/08 08:12:02;;;;;;;52.87;35.73;;;;;;;;;;5072418;27;20020;-80
2023/04/08 08:14:28;;;;;;;52.87;34.83;;;;;;;;;;5088302;28;20024;-77
2023/04/08 08:16:56;;;;;;;54.73;36.13;;;;;;;;;;5069039;28;20017;-77
2023/04/08 08:19:22;;;;;;;49.67;34.13;;;;;;;;;;5071664;28;20016;-77
2023/04/08 08:21:50;;;;;;;48.90;33.97;;;;;;;;;;5072331;28;20049;-78
2023/04/08 08:24:16;;;;;;;51.80;34.07;;;;;;;;;;5070740;28;20045;-79
2023/04/08 08:26:44;;;;;;;46.30;31.73;;;;;;;;;;5070983;27;20198;-79
2023/04/08 08:29:10;;;;;;;45.97;31.47;;;;;;;;;;5071270;28;20033;-80
2023/04/08 08:31:39;;;;;;;44.97;31.73;;;;;;;;;;5072312;28;20080;-79
2023/04/08 08:34:05;;;;;;;48.13;32.30;;;;;;;;;;5071485;28;20024;-80
2023/04/08 08:36:31;;;;;;;43.87;29.23;;;;;;;;;;5071433;28;20206;-79
2023/04/08 08:38:57;;;;;;;43.80;30.20;;;;;;;;;;5088460;27;20013;-80
2023/04/08 08:41:23;;;;;;;47.47;31.40;;;;;;;;;;5072683;28;20120;-80
2023/04/08 08:43:49;;;;;;;44.03;31.07;;;;;;;;;;5071397;27;20062;-80
2023/04/08 08:46:16;;;;;;;47.70;29.93;;;;;;;;;;5095372;22;20032;-80
2023/04/08 08:48:42;;;;;;;44.63;29.67;;;;;;;;;;5068918;28;20021;-79
2023/04/08 08:51:12;;;;;;;44.67;30.17;;;;;;;;;;5050288;28;20013;-78
2023/04/08 08:53:44;;;;;;;45.33;31.33;;;;;;;;;;5069952;28;20009;-79
2023/04/08 08:56:10;;;;;;;47.83;31.65;;;;;;;;;;5053450;28;20056;-80
2023/04/08 08:58:39;;;;;;;44.83;30.73;;;;;;;;;;5053465;28;20238;-79
2023/04/08 09:01:24;;;;;;;43.23;29.23;;;;;;;;;;5055370;28;20055;-80
2023/04/08 09:04:05;;;;;;;46.67;30.53;;;;;;;;;;5069563;28;20088;-79
2023/04/08 09:06:32;;;;;;;45.20;30.50;;;;;;;;;;5049315;28;20021;-79
2023/04/08 09:09:00;;;;;;;52.93;34.53;;;;;;;;;;5068193;28;20013;-79
2023/04/08 09:11:28;;;;;;;58.43;36.63;;;;;;;;;;5046754;28;20033;-79
2023/04/08 09:13:55;;;;;;;56.63;36.73;;;;;;;;;;5045716;28;20026;-79
2023/04/08 09:16:22;;;;;;;58.40;37.20;;;;;;;;;;5052318;28;20076;-80
2023/04/08 09:18:48;;;;;;;63.43;40.80;;;;;;;;;;5066644;28;20029;-80
2023/04/08 09:21:18;;;;;;;64.23;38.43;;;;;;;;;;5052640;28;20031;-79
2023/04/08 09:23:49;;;;;;;67.13;39.20;;;;;;;;;;5046243;28;20043;-80
2023/04/08 09:26:16;;;;;;;69.63;41.23;;;;;;;;;;5070112;28;20021;-79
2023/04/08 09:28:43;;;;;;;72.83;42.97;;;;;;;;;;5051024;28;20013;-79
2023/04/08 09:31:19;;;;;;;85.30;47.53;;;;;;;;;;5068818;28;20047;-80
2023/04/08 09:33:53;;;;;;;85.53;47.63;;;;;;;;;;5068040;28;20014;-79
2023/04/08 09:36:19;;;;;;;86.57;48.43;;;;;;;;;;5070063;28;20025;-80
2023/04/08 09:38:48;;;;;;;82.83;46.47;;;;;;;;;;5055012;28;20029;-79
2023/04/08 09:41:15;;;;;;;90.67;49.00;;;;;;;;;;5053215;28;20017;-79
2023/04/08 09:43:42;;;;;;;88.90;48.03;;;;;;;;;;5054321;28;20116;-80
2023/04/08 09:46:11;;;;;;;85.70;48.07;;;;;;;;;;5055350;28;20045;-80
2023/04/08 09:48:49;;;;;;;87.20;48.13;;;;;;;;;;5052456;28;20068;-79
2023/04/08 09:51:16;;;;;;;84.57;46.57;;;;;;;;;;5067969;28;20084;-80
2023/04/08 09:53:48;;;;;;;80.90;45.17;;;;;;;;;;5051527;28;20171;-79
2023/04/08 09:56:18;;;;;;;82.60;44.80;;;;;;;;;;5051435;28;20033;-79
2023/04/08 09:58:54;;;;;;;81.50;45.27;;;;;;;;;;5068277;28;20009;-79
2023/04/08 10:01:28;;;;;;;74.23;43.97;;;;;;;;;;5053155;28;20029;-80
2023/04/08 10:03:58;;;;;;;69.30;43.40;;;;;;;;;;5052747;28;20025;-80
2023/04/08 10:06:28;;;;;;;67.90;43.43;;;;;;;;;;5050449;28;21311;-79
2023/04/08 10:08:55;;;;;;;67.27;42.20;;;;;;;;;;5049112;28;20045;-79
2023/04/08 10:11:22;;;;;;;61.03;40.37;;;;;;;;;;5053146;28;20029;-79
2023/04/08 10:13:51;;;;;;;51.80;35.87;;;;;;;;;;5050068;28;20034;-79
2023/04/08 10:16:24;;;;;;;48.73;33.93;;;;;;;;;;5049504;28;20084;-80
2023/04/08 10:18:54;;;;;;;41.60;28.63;;;;;;;;;;5046002;28;20017;-80
2023/04/08 10:21:33;;;;;;;41.43;29.57;;;;;;;;;;5046753;28;20028;-79
2023/04/08 10:24:04;;;;;;;40.67;29.40;;;;;;;;;;5232985;22;20040;-79
2023/04/08 10:26:35;;;;;;;43.33;30.20;;;;;;;;;;5086796;28;20014;-79
2023/04/08 10:29:14;;;;;;;41.97;31.23;;;;;;;;;;5075788;28;20024;-79
2023/04/08 10:31:40;;;;;;;45.23;34.27;;;;;;;;;;5087177;28;20028;-79
2023/04/08 10:34:16;;;;;;;39.77;31.03;;;;;;;;;;5085793;28;20144;-79
2023/04/08 10:36:43;;;;;;;47.63;33.50;;;;;;;;;;5085559;28;20037;-79
2023/04/08 10:39:09;;;;;;;35.93;28.57;;;;;;;;;;5086149;28;20072;-78
2023/04/08 10:41:35;;;;;;;37.60;28.90;;;;;;;;;;5088316;28;20024;-78
2023/04/08 10:44:04;;;;;;;39.10;29.00;;;;;;;;;;5085539;28;20044;-78
2023/04/08 10:46:37;;;;;;;36.50;28.07;;;;;;;;;;5086264;28;20068;-79
2023/04/08 10:49:03;;;;;;;35.00;27.63;;;;;;;;;;5084815;28;20022;-80
2023/04/08 10:51:33;;;;;;;34.30;27.27;;;;;;;;;;5086725;28;20021;-79
2023/04/08 10:54:07;;;;;;;33.90;26.23;;;;;;;;;;5085787;28;20016;-79
2023/04/08 10:56:33;;;;;;;32.30;24.73;;;;;;;;;;5087424;28;20065;-79
2023/04/08 10:59:02;;;;;;;31.73;24.93;;;;;;;;;;5074131;28;20020;-79
2023/04/08 11:01:38;;;;;;;30.97;24.67;;;;;;;;;;5086344;28;20088;-79
2023/04/08 11:04:06;;;;;;;25.50;22.03;;;;;;;;;;5081043;28;20059;-80
2023/04/08 11:06:38;;;;;;;28.07;22.30;;;;;;;;;;5085986;28;20104;-79
2023/04/08 11:09:04;;;;;;;33.75;25.73;;;;;;;;;;5075963;28;20080;-78
2023/04/08 11:11:31;;;;;;;34.43;26.63;;;;;;;;;;5075800;28;20025;-80
2023/04/08 11:13:57;;;;;;;50.07;34.87;;;;;;;;;;5086633;28;20020;-79
2023/04/08 11:16:24;;;;;;;50.30;34.47;;;;;;;;;;5085418;28;20033;-79
2023/04/08 11:18:53;;;;;;;51.13;35.23;;;;;;;;;;5076682;28;20009;-79
2023/04/08 11:21:21;;;;;;;52.90;38.40;;;;;;;;;;5091605;28;20017;-79
2023/04/08 11:23:50;;;;;;;52.20;36.37;;;;;;;;;;5092130;28;20024;-79
2023/04/08 11:26:16;;;;;;;52.07;36.67;;;;;;;;;;5082205;28;20048;-79
2023/04/08 11:28:45;;;;;;;59.60;40.67;;;;;;;;;;5096316;28;20028;-79
2023/04/08 11:31:12;;;;;;;58.07;39.00;;;;;;;;;;5084303;28;20019;-79
2023/04/08 11:33:38;;;;;;;63.00;40.33;;;;;;;;;;5080992;28;20024;-79
2023/04/08 11:36:08;;;;;;;67.27;39.70;;;;;;;;;;5082167;28;20068;-80
2023/04/08 11:38:39;;;;;;;64.67;40.30;;;;;;;;;;5089318;28;20116;-77
2023/04/08 11:41:05;;;;;;;60.60;40.30;;;;;;;;;;5081652;28;20013;-80
2023/04/08 11:43:31;;;;;;;67.90;42.23;;;;;;;;;;5083337;28;20047;-80
2023/04/08 11:45:57;;;;;;;65.33;40.70;;;;;;;;;;5089468;28;20025;-81
2023/04/08 11:48:26;;;;;;;60.23;38.43;;;;;;;;;;5086470;28;20087;-79
2023/04/08 11:51:08;;;;;;;62.27;37.07;;;;;;;;;;5085191;28;20008;-79
2023/04/08 11:53:36;;;;;;;58.25;37.08;;;;;;;;;;5091475;28;20051;-79
2023/04/08 11:56:17;;;;;;;59.40;38.63;;;;;;;;;;5091795;28;20041;-79
2023/04/08 11:58:48;;;;;;;62.60;37.90;;;;;;;;;;5090043;28;20012;-79
2023/04/08 12:01:15;;;;;;;61.23;38.37;;;;;;;;;;5090796;28;20021;-80
2023/04/08 12:03:56;;;;;;;65.57;38.83;;;;;;;;;;5081812;28;20083;-79
2023/04/08 12:06:22;;;;;;;63.90;38.13;;;;;;;;;;5090890;28;20099;-80
2023/04/08 12:08:51;;;;;;;61.43;38.10;;;;;;;;;;5085501;28;20032;-79
2023/04/08 12:11:17;;;;;;;69.40;40.33;;;;;;;;;;5078023;28;20065;-80
2023/04/08 12:13:43;;;;;;;63.47;38.27;;;;;;;;;;5089562;28;20088;-80
2023/04/08 12:16:14;;;;;;;64.30;38.07;;;;;;;;;;5090179;28;20048;-79
2023/04/08 12:18:40;;;;;;;67.63;40.87;;;;;;;;;;5087928;28;20012;-80
2023/04/08 12:21:06;;;;;;;63.43;38.77;;;;;;;;;;5085511;28;20027;-80
2023/04/08 12:23:32;;;;;;;68.93;38.77;;;;;;;;;;5083258;28;20348;-80
2023/04/08 12:25:58;;;;;;;60.63;36.53;;;;;;;;;;5080928;28;20027;-79
2023/04/08 12:28:27;;;;;;;62.47;37.30;;;;;;;;;;5088875;28;20024;-79
2023/04/08 12:30:53;;;;;;;62.87;36.43;;;;;;;;;;5111600;28;20015;-80
2023/04/08 12:33:19;;;;;;;64.67;38.17;;;;;;;;;;5088216;28;20051;-79
2023/04/08 12:35:45;;;;;;;66.67;39.70;;;;;;;;;;5080681;28;20012;-80
2023/04/08 12:38:11;;;;;;;64.70;37.93;;;;;;;;;;5090085;28;20028;-79
2023/04/08 12:40:37;;;;;;;62.80;37.23;;;;;;;;;;5090640;28;20029;-80
2023/04/08 12:43:06;;;;;;;61.70;38.20;;;;;;;;;;5089241;28;20085;-80
2023/04/08 12:45:32;;;;;;;67.70;35.37;;;;;;;;;;5081553;28;20031;-79
2023/04/08 12:47:58;;;;;;;61.17;35.83;;;;;;;;;;5079690;28;20020;-79
2023/04/08 12:50:24;;;;;;;58.73;34.53;;;;;;;;;;5081352;28;20021;-78
2023/04/08 12:52:50;;;;;;;55.27;33.13;;;;;;;;;;5078443;28;20017;-79
2023/04/08 12:55:17;;;;;;;56.70;33.20;;;;;;;;;;5081291;28;20023;-79
2023/04/08 12:57:43;;;;;;;56.60;33.67;;;;;;;;;;5077718;28;20028;-80
2023/04/08 13:00:10;;;;;;;58.00;34.17;;;;;;;;;;5085857;28;20035;-80
2023/04/08 13:02:36;;;;;;;57.13;34.33;;;;;;;;;;5088578;28;20024;-80
2023/04/08 13:05:02;;;;;;;64.80;34.60;;;;;;;;;;5083851;28;20463;-80
2023/04/08 13:07:28;;;;;;;55.80;33.13;;;;;;;;;;5089519;28;20032;-80
2023/04/08 13:09:54;;;;;;;60.90;35.20;;;;;;;;;;5082023;28;20009;-80
2023/04/08 13:12:21;;;;;;;57.87;35.43;;;;;;;;;;5076099;28;20034;-80
2023/04/08 13:14:47;;;;;;;56.43;34.60;;;;;;;;;;5087740;28;20013;-80
2023/04/08 13:17:13;;;;;;;60.70;34.90;;;;;;;;;;5075968;28;20024;-80
2023/04/08 13:19:39;;;;;;;59.40;35.53;;;;;;;;;;5089138;28;20012;-80
2023/04/08 13:22:05;;;;;;;58.37;34.27;;;;;;;;;;5088305;28;20053;-80
2023/04/08 13:24:32;;;;;;;57.63;35.20;;;;;;;;;;5077773;28;20025;-79
2023/04/08 13:26:58;;;;;;;60.67;34.80;;;;;;;;;;5089030;28;20018;-80
2023/04/08 13:29:24;;;;;;;57.47;35.57;;;;;;;;;;5086876;28;20055;-79
2023/04/08 13:31:52;;;;;;;51.83;33.73;;;;;;;;;;5074852;28;20008;-79
2023/04/08 13:34:18;;;;;;;62.07;35.97;;;;;;;;;;5084049;28;20031;-79
2023/04/08 13:36:44;;;;;;;54.40;32.83;;;;;;;;;;5084731;28;20021;-79
2023/04/08 13:39:10;;;;;;;50.20;30.73;;;;;;;;;;5089330;28;20017;-80
2023/04/08 13:41:36;;;;;;;53.20;32.17;;;;;;;;;;5085549;28;20060;-79
2023/04/08 13:44:02;;;;;;;53.17;33.57;;;;;;;;;;5086999;28;20052;-79
2023/04/08 13:46:28;;;;;;;31.00;18.77;;;;;;;;;;5086013;28;20036;-79
2023/04/08 13:48:54;;;;;;;25.50;17.07;;;;;;;;;;5079176;28;20039;-80
2023/04/08 13:51:20;;;;;;;18.87;13.13;;;;;;;;;;5070170;28;20012;-78
2023/04/08 13:53:46;;;;;;;15.77;12.57;;;;;;;;;;5074193;28;20031;-78
2023/04/08 13:56:12;;;;;;;16.50;11.93;;;;;;;;;;5073980;28;20074;-78
2023/04/08 13:58:39;;;;;;;15.27;11.45;;;;;;;;;;5084398;28;20059;-78
2023/04/08 14:01:05;;;;;;;15.00;10.80;;;;;;;;;;5086321;28;20024;-79
2023/04/08 14:03:31;;;;;;;15.47;10.23;;;;;;;;;;5075216;28;20036;-78
2023/04/08 14:05:57;;;;;;;10.27;7.40;;;;;;;;;;5085126;28;20039;-78
2023/04/08 14:08:24;;;;;;;12.47;7.83;;;;;;;;;;5075211;28;20031;-78
2023/04/08 14:10:56;;;;;;;11.00;7.43;;;;;;;;;;5078001;28;20021;-79
2023/04/08 14:13:24;;;;;;;10.88;7.20;;;;;;;;;;5073508;28;20035;-78
2023/04/08 14:15:52;;;;;;;14.20;7.43;;;;;;;;;;5085219;28;20029;-79
2023/04/08 14:18:18;;;;;;;9.33;7.13;;;;;;;;;;5073387;28;20020;-78